Time;durP1;ratioP1;P1;durP2;ratioP2;P2;SDS_P1;SDS_P2;PMS_P1;PMS_P2;Temp;Humidity;BMP_temperature;BMP_pressure;BME280_temperature;BME280_humidity;BME280_pressure;Samples;Min_cycle;Max_cycle;Signal;HPM_P1;HPM_P2
2021/04/19 00:01:05;;;;;;;16.67;9.67;;;6.50;99.90;;;;;;5014979;28;20125;-82
2021/04/19 00:03:31;;;;;;;16.50;9.13;;;6.60;99.90;;;;;;5015087;28;20439;-84
2021/04/19 00:05:58;;;;;;;15.93;9.23;;;6.50;99.90;;;;;;5030944;28;20060;-83
2021/04/19 00:08:24;;;;;;;16.17;9.17;;;6.50;99.90;;;;;;4997370;28;20025;-83
2021/04/19 00:10:50;;;;;;;18.57;9.63;;;6.50;99.90;;;;;;4997358;28;20022;-82
2021/04/19 00:13:15;;;;;;;18.27;9.87;;;6.50;99.90;;;;;;5010815;28;20105;-84
2021/04/19 00:15:41;;;;;;;16.27;9.47;;;6.50;99.90;;;;;;5033373;28;20103;-83
2021/04/19 00:18:07;;;;;;;15.23;9.20;;;6.50;99.90;;;;;;5030352;28;20040;-83
2021/04/19 00:20:32;;;;;;;16.00;8.90;;;6.50;99.90;;;;;;5022028;28;20506;-82
2021/04/19 00:22:58;;;;;;;18.20;9.70;;;6.40;99.90;;;;;;5005922;28;20021;-82
2021/04/19 00:25:25;;;;;;;17.33;10.07;;;6.40;99.90;;;;;;5018806;28;20376;-82
2021/04/19 00:27:51;;;;;;;22.07;10.83;;;6.40;99.90;;;;;;5031370;28;20056;-83
2021/04/19 00:30:17;;;;;;;17.87;8.70;;;6.40;99.90;;;;;;5002145;28;20025;-83
2021/04/19 00:32:43;;;;;;;18.23;9.40;;;6.40;99.90;;;;;;5019792;28;20368;-83
2021/04/19 00:35:09;;;;;;;18.10;9.40;;;6.30;99.90;;;;;;4989939;28;20034;-82
2021/04/19 00:37:35;;;;;;;16.70;9.33;;;6.30;99.90;;;;;;4998042;28;20505;-84
2021/04/19 00:40:08;;;;;;;17.40;8.90;;;6.30;99.90;;;;;;5031921;28;20108;-83
2021/04/19 00:42:34;;;;;;;17.30;9.33;;;6.30;99.90;;;;;;4995310;28;20037;-83
2021/04/19 00:45:00;;;;;;;16.00;9.33;;;6.20;99.90;;;;;;5007132;28;20093;-86
2021/04/19 00:47:25;;;;;;;21.20;9.50;;;6.20;99.90;;;;;;5028951;28;20095;-82
2021/04/19 00:49:51;;;;;;;16.17;9.17;;;6.20;99.90;;;;;;5015785;28;20021;-83
2021/04/19 00:52:18;;;;;;;17.80;9.80;;;6.10;99.90;;;;;;4998948;28;20090;-82
2021/04/19 00:54:44;;;;;;;16.87;10.13;;;6.10;99.90;;;;;;5025153;28;20029;-83
2021/04/19 00:57:09;;;;;;;15.17;9.10;;;6.00;99.90;;;;;;5014712;28;20030;-82
2021/04/19 00:59:35;;;;;;;17.50;9.73;;;6.00;99.90;;;;;;5003623;28;20076;-83
2021/04/19 01:02:02;;;;;;;17.50;9.10;;;6.00;99.90;;;;;;5030815;28;20021;-83
2021/04/19 01:04:27;;;;;;;15.80;9.27;;;5.90;99.90;;;;;;5033167;28;20056;-82
2021/04/19 01:06:54;;;;;;;17.00;9.43;;;5.90;99.90;;;;;;5009076;28;20030;-82
2021/04/19 01:09:20;;;;;;;18.03;9.37;;;5.90;99.90;;;;;;4993242;28;20091;-82
2021/04/19 01:11:46;;;;;;;17.90;8.93;;;5.90;99.90;;;;;;5009392;28;20026;-82
2021/04/19 01:14:11;;;;;;;19.10;9.93;;;5.90;99.90;;;;;;5030752;28;20104;-83
2021/04/19 01:16:37;;;;;;;19.37;9.50;;;5.90;99.90;;;;;;5017614;28;20018;-84
2021/04/19 01:19:02;;;;;;;17.37;9.70;;;5.80;99.90;;;;;;5005123;28;20045;-82
2021/04/19 01:21:28;;;;;;;18.90;10.10;;;5.80;99.90;;;;;;5022015;28;20075;-83
2021/04/19 01:23:54;;;;;;;15.90;10.00;;;5.80;99.90;;;;;;5011074;28;20029;-82
2021/04/19 01:26:19;;;;;;;21.07;10.80;;;5.80;99.90;;;;;;5031774;28;20104;-83
2021/04/19 01:28:45;;;;;;;20.13;10.17;;;5.70;99.90;;;;;;5010431;28;20026;-82
2021/04/19 01:31:11;;;;;;;17.03;10.00;;;5.70;99.90;;;;;;4988581;28;20061;-82
2021/04/19 01:33:37;;;;;;;18.37;10.50;;;5.70;99.90;;;;;;5014661;28;20026;-82
2021/04/19 01:36:03;;;;;;;24.57;11.27;;;5.70;99.90;;;;;;5005863;28;20037;-83
2021/04/19 01:38:28;;;;;;;18.53;10.50;;;5.70;99.90;;;;;;5012203;28;20034;-83
2021/04/19 01:40:55;;;;;;;19.33;10.53;;;5.70;99.90;;;;;;5020421;28;20064;-85
2021/04/19 01:43:21;;;;;;;20.70;11.33;;;5.70;99.90;;;;;;5011185;28;20072;-82
2021/04/19 01:45:49;;;;;;;19.87;10.63;;;5.80;99.90;;;;;;5011576;28;20036;-82
2021/04/19 01:48:15;;;;;;;21.00;10.80;;;5.80;99.90;;;;;;5019344;28;20937;-83
2021/04/19 01:50:40;;;;;;;17.47;9.80;;;5.80;99.90;;;;;;5021215;28;20036;-82
2021/04/19 01:53:06;;;;;;;21.40;11.53;;;5.90;99.90;;;;;;5012625;28;20483;-82
2021/04/19 01:55:34;;;;;;;19.07;10.47;;;5.90;99.90;;;;;;5000314;28;20083;-82
2021/04/19 01:58:09;;;;;;;19.07;10.47;;;5.90;99.90;;;;;;5018652;28;20105;-83
2021/04/19 02:00:37;;;;;;;17.27;10.20;;;5.90;99.90;;;;;;5016125;28;20394;-84
2021/04/19 02:03:06;;;;;;;17.83;9.80;;;6.00;99.90;;;;;;5018408;28;20030;-82
2021/04/19 02:05:37;;;;;;;17.57;10.50;;;6.00;99.90;;;;;;5017967;28;20100;-82
2021/04/19 02:08:22;;;;;;;16.73;9.80;;;6.00;99.90;;;;;;5031211;28;20079;-82
2021/04/19 02:10:56;;;;;;;19.80;10.40;;;6.00;99.90;;;;;;5017655;28;20042;-82
2021/04/19 02:13:41;;;;;;;16.73;10.13;;;6.00;99.90;;;;;;5025538;28;20030;-82
2021/04/19 02:16:21;;;;;;;19.80;10.63;;;6.00;99.90;;;;;;5012269;28;20060;-83
2021/04/19 02:18:58;;;;;;;18.30;10.30;;;6.00;99.90;;;;;;4984403;28;20072;-83
2021/04/19 02:21:35;;;;;;;18.67;10.77;;;6.10;99.90;;;;;;5016557;28;20028;-83
2021/04/19 02:24:05;;;;;;;18.03;10.33;;;6.10;99.90;;;;;;5018536;28;20026;-83
2021/04/19 02:26:34;;;;;;;22.10;10.03;;;6.10;99.90;;;;;;5016852;28;20454;-85
2021/04/19 02:29:09;;;;;;;20.33;10.03;;;6.10;99.90;;;;;;4989476;28;20406;-82
2021/04/19 02:31:39;;;;;;;18.80;10.63;;;6.20;99.90;;;;;;5019100;28;20084;-82
2021/04/19 02:34:08;;;;;;;16.37;10.00;;;6.10;99.90;;;;;;5011726;28;20084;-83
2021/04/19 02:36:36;;;;;;;16.63;10.00;;;6.10;99.90;;;;;;5018004;28;20053;-83
2021/04/19 02:39:04;;;;;;;17.33;9.67;;;6.10;99.90;;;;;;5014432;28;20484;-83
2021/04/19 02:41:30;;;;;;;16.17;9.20;;;6.10;99.90;;;;;;5012790;28;20064;-83
2021/04/19 02:43:58;;;;;;;15.30;9.83;;;6.10;99.90;;;;;;5004137;28;20547;-82
2021/04/19 02:46:28;;;;;;;22.17;10.47;;;6.10;99.90;;;;;;5019057;28;20033;-83
2021/04/19 02:48:55;;;;;;;17.57;10.50;;;6.10;99.90;;;;;;5001698;28;20026;-83
2021/04/19 02:51:20;;;;;;;21.03;11.23;;;6.10;99.90;;;;;;5013639;28;20092;-82
2021/04/19 02:53:49;;;;;;;19.93;10.80;;;6.10;99.90;;;;;;4996239;28;20038;-82
2021/04/19 02:56:15;;;;;;;16.63;9.27;;;6.10;99.90;;;;;;4992070;28;20121;-83
2021/04/19 02:58:46;;;;;;;17.80;10.30;;;6.10;99.90;;;;;;5018128;28;20030;-83
2021/04/19 03:01:19;;;;;;;20.03;11.57;;;6.10;99.90;;;;;;4989377;28;20029;-83
2021/04/19 03:03:47;;;;;;;18.33;10.67;;;6.10;99.90;;;;;;5003863;28;20088;-83
2021/04/19 03:06:14;;;;;;;20.07;11.30;;;6.10;99.90;;;;;;5026635;28;20033;-82
2021/04/19 03:08:46;;;;;;;19.90;11.93;;;6.10;99.90;;;;;;5007211;28;20030;-84
2021/04/19 03:11:30;;;;;;;21.97;11.53;;;6.00;99.90;;;;;;4987157;28;20058;-82
2021/04/19 03:13:58;;;;;;;20.17;10.50;;;6.00;99.90;;;;;;5026771;28;20033;-83
2021/04/19 03:16:27;;;;;;;19.03;11.63;;;6.00;99.90;;;;;;5007346;28;20498;-83
2021/04/19 03:18:55;;;;;;;18.87;11.37;;;6.00;99.90;;;;;;5000412;28;20033;-84
2021/04/19 03:21:26;;;;;;;19.23;10.60;;;6.00;99.90;;;;;;5037468;23;20052;-88
2021/04/19 03:23:55;;;;;;;19.83;11.37;;;6.00;99.90;;;;;;5019279;28;20021;-88
2021/04/19 03:26:25;;;;;;;20.53;11.53;;;6.10;99.90;;;;;;5018427;28;20094;-88
2021/04/19 03:28:51;;;;;;;23.07;11.50;;;6.10;99.90;;;;;;5002622;28;20036;-88
2021/04/19 03:31:31;;;;;;;17.73;11.33;;;6.10;99.90;;;;;;5015851;28;20034;-89
2021/04/19 03:34:03;;;;;;;20.40;11.17;;;6.10;99.90;;;;;;5019276;28;20028;-88
2021/04/19 03:36:31;;;;;;;14.13;8.45;;;6.10;99.90;;;;;;5019595;28;20026;-89
2021/04/19 03:38:58;;;;;;;18.87;10.57;;;6.10;99.90;;;;;;5018962;28;20048;-89
2021/04/19 03:41:24;;;;;;;17.40;10.70;;;6.10;99.90;;;;;;5002144;28;20025;-88
2021/04/19 03:43:55;;;;;;;21.57;11.63;;;6.10;99.90;;;;;;5017327;28;20553;-89
2021/04/19 03:46:23;;;;;;;14.10;8.73;;;6.10;99.90;;;;;;5018270;28;20116;-89
2021/04/19 03:49:20;;;;;;;21.27;11.17;;;6.10;99.90;;;;;;5018659;28;20445;-88
2021/04/19 03:51:47;;;;;;;18.93;12.03;;;6.10;99.90;;;;;;5032330;28;20048;-89
2021/04/19 03:54:13;;;;;;;24.10;12.73;;;6.20;99.90;;;;;;5017918;28;20029;-89
2021/04/19 03:56:41;;;;;;;19.83;12.10;;;6.10;99.90;;;;;;5017762;28;20252;-88
2021/04/19 03:59:14;;;;;;;19.23;12.10;;;6.20;99.90;;;;;;5018360;28;20112;-89
2021/04/19 04:01:41;;;;;;;22.97;12.47;;;6.30;99.90;;;;;;5019556;28;20018;-89
2021/04/19 04:04:09;;;;;;;22.13;12.63;;;6.20;99.90;;;;;;5019189;28;20054;-88
2021/04/19 04:06:35;;;;;;;21.03;12.27;;;6.20;99.90;;;;;;5036968;28;20079;-88
2021/04/19 04:09:02;;;;;;;19.53;11.03;;;6.20;99.90;;;;;;5018284;28;20025;-88
2021/04/19 04:11:28;;;;;;;19.83;11.00;;;6.20;99.90;;;;;;5030594;28;20017;-89
2021/04/19 04:13:53;;;;;;;18.87;10.73;;;6.20;99.90;;;;;;5018277;28;20028;-88
2021/04/19 04:16:19;;;;;;;17.33;10.40;;;6.10;99.90;;;;;;5019205;28;20029;-89
2021/04/19 04:18:45;;;;;;;20.00;10.27;;;6.10;99.90;;;;;;5018078;28;20505;-89
2021/04/19 04:21:11;;;;;;;19.00;11.33;;;6.10;99.90;;;;;;5000828;28;20041;-88
2021/04/19 04:23:37;;;;;;;19.70;11.80;;;6.10;99.90;;;;;;5036149;28;20045;-88
2021/04/19 04:26:04;;;;;;;18.57;10.83;;;6.10;99.90;;;;;;5018092;28;20164;-89
2021/04/19 04:28:30;;;;;;;18.20;10.37;;;6.10;99.90;;;;;;5018052;28;20055;-89
2021/04/19 04:30:56;;;;;;;18.77;10.23;;;6.10;99.90;;;;;;5017604;28;20033;-89
2021/04/19 04:33:22;;;;;;;19.63;11.17;;;6.10;99.90;;;;;;5001084;28;20033;-89
2021/04/19 04:35:48;;;;;;;18.67;11.07;;;6.30;99.90;;;;;;5030718;28;20033;-89
2021/04/19 04:38:13;;;;;;;20.33;10.27;;;6.10;99.90;;;;;;5017350;28;20036;-88
2021/04/19 04:40:39;;;;;;;19.87;9.90;;;6.10;99.90;;;;;;5004500;28;20060;-89
2021/04/19 04:43:09;;;;;;;17.57;11.03;;;6.00;99.90;;;;;;5007528;28;20065;-89
2021/04/19 04:45:36;;;;;;;18.80;10.27;;;6.00;99.90;;;;;;5016309;28;20033;-89
2021/04/19 04:48:06;;;;;;;18.13;10.77;;;5.90;99.90;;;;;;5010882;28;20037;-89
2021/04/19 04:51:04;;;;;;;16.97;9.97;;;5.90;99.90;;;;;;5014872;28;20033;-88
2021/04/19 04:53:39;;;;;;;21.33;10.90;;;5.80;99.90;;;;;;5010664;28;20558;-89
2021/04/19 04:56:06;;;;;;;20.97;11.20;;;5.80;99.90;;;;;;5017504;28;20040;-89
2021/04/19 04:58:37;;;;;;;22.03;11.17;;;5.80;99.90;;;;;;5017529;28;20030;-89
2021/04/19 05:01:06;;;;;;;24.03;13.50;;;5.80;99.90;;;;;;5016142;28;20112;-88
2021/04/19 05:03:32;;;;;;;18.23;11.63;;;5.80;99.90;;;;;;5015693;28;20033;-89
2021/04/19 05:05:58;;;;;;;20.83;12.67;;;5.80;99.90;;;;;;5016002;28;20036;-89
2021/04/19 05:08:26;;;;;;;20.40;11.60;;;5.80;99.90;;;;;;5016808;28;20061;-89
2021/04/19 05:10:51;;;;;;;19.10;11.67;;;5.70;99.90;;;;;;5016025;28;20076;-89
2021/04/19 05:13:18;;;;;;;18.93;11.70;;;5.70;99.90;;;;;;5010026;28;20053;-88
2021/04/19 05:15:45;;;;;;;20.40;11.53;;;5.70;99.90;;;;;;5019251;28;20037;-89
2021/04/19 05:18:15;;;;;;;21.30;11.57;;;5.70;99.90;;;;;;5012787;28;20612;-89
2021/04/19 05:20:41;;;;;;;21.07;11.13;;;5.50;99.90;;;;;;5017936;28;20505;-89
2021/04/19 05:23:08;;;;;;;20.03;11.77;;;5.50;99.90;;;;;;5018646;28;20052;-89
2021/04/19 05:25:34;;;;;;;20.80;11.57;;;5.50;99.90;;;;;;5018559;28;20022;-88
2021/04/19 05:28:01;;;;;;;20.47;12.67;;;5.50;99.90;;;;;;5019470;28;20036;-89
2021/04/19 05:30:30;;;;;;;19.03;11.03;;;5.50;99.90;;;;;;5018756;28;20032;-89
2021/04/19 05:32:58;;;;;;;21.60;10.77;;;5.50;99.90;;;;;;5014885;28;20445;-88
2021/04/19 05:35:24;;;;;;;20.27;11.13;;;5.50;99.90;;;;;;5007459;28;20094;-89
2021/04/19 05:37:50;;;;;;;18.83;11.63;;;5.60;99.90;;;;;;5020444;28;20084;-88
2021/04/19 05:40:19;;;;;;;21.30;11.70;;;5.60;99.90;;;;;;5021699;28;20104;-89
2021/04/19 05:42:45;;;;;;;21.10;12.40;;;5.70;99.90;;;;;;5011792;28;20505;-88
2021/04/19 05:45:15;;;;;;;21.30;11.80;;;5.70;99.90;;;;;;5016944;28;20116;-89
2021/04/19 05:47:49;;;;;;;20.80;12.67;;;5.80;99.90;;;;;;5020216;28;20029;-90
2021/04/19 05:50:17;;;;;;;20.47;12.83;;;5.80;99.90;;;;;;5021449;28;20037;-90
2021/04/19 05:52:47;;;;;;;22.20;12.60;;;5.80;99.90;;;;;;5019766;28;20029;-89
2021/04/19 05:55:15;;;;;;;22.20;12.87;;;5.80;99.90;;;;;;5015284;28;20056;-88
2021/04/19 05:57:54;;;;;;;21.23;13.00;;;5.80;99.90;;;;;;5034201;28;20056;-88
2021/04/19 06:00:35;;;;;;;22.53;12.73;;;5.80;99.90;;;;;;5018987;28;20037;-91
2021/04/19 06:03:12;;;;;;;20.73;12.23;;;5.80;99.90;;;;;;5027285;28;20064;-86
2021/04/19 06:06:02;;;;;;;21.33;12.07;;;5.90;99.90;;;;;;5013996;28;20030;-87
2021/04/19 06:08:41;;;;;;;24.77;12.70;;;5.90;99.90;;;;;;5028380;28;20053;-86
2021/04/19 06:11:23;;;;;;;20.67;11.97;;;5.90;99.90;;;;;;5016073;28;20029;-85
2021/04/19 06:13:50;;;;;;;21.30;12.90;;;5.90;99.90;;;;;;5028727;28;20454;-86
2021/04/19 06:16:17;;;;;;;21.67;12.30;;;5.80;99.90;;;;;;5030470;28;20342;-86
2021/04/19 06:18:44;;;;;;;20.70;12.37;;;5.80;99.90;;;;;;5030472;28;20228;-86
2021/04/19 06:21:12;;;;;;;24.80;13.43;;;5.70;99.90;;;;;;5034338;28;20482;-85
2021/04/19 06:23:40;;;;;;;20.43;12.37;;;5.80;99.90;;;;;;5012733;28;20029;-85
2021/04/19 06:26:07;;;;;;;24.13;13.27;;;5.70;99.90;;;;;;5018214;28;20084;-86
2021/04/19 06:28:33;;;;;;;23.67;14.70;;;5.70;99.90;;;;;;5013486;28;20036;-85
2021/04/19 06:31:00;;;;;;;23.30;12.70;;;5.70;99.90;;;;;;5015317;28;20026;-84
2021/04/19 06:33:26;;;;;;;26.60;13.63;;;5.70;99.90;;;;;;5024344;28;20049;-87
2021/04/19 06:35:52;;;;;;;24.83;13.47;;;5.70;99.90;;;;;;5016796;28;20037;-88
2021/04/19 06:38:18;;;;;;;25.00;13.57;;;5.70;99.90;;;;;;5016935;28;20083;-87
2021/04/19 06:40:45;;;;;;;22.80;13.33;;;5.70;99.90;;;;;;5013822;28;20533;-87
2021/04/19 06:43:11;;;;;;;26.87;14.40;;;5.70;99.90;;;;;;5015516;28;20120;-86
2021/04/19 06:45:39;;;;;;;25.30;14.93;;;5.60;99.90;;;;;;5016606;28;20665;-87
2021/04/19 06:48:09;;;;;;;24.73;14.43;;;5.80;99.90;;;;;;5017068;28;20025;-87
2021/04/19 06:50:36;;;;;;;25.87;15.37;;;5.60;99.90;;;;;;5015251;28;20053;-86
2021/04/19 06:53:02;;;;;;;25.43;14.53;;;5.60;99.90;;;;;;5015681;28;20022;-86
2021/04/19 06:55:28;;;;;;;22.57;14.33;;;5.40;99.90;;;;;;5014089;28;20029;-86
2021/04/19 06:57:59;;;;;;;27.20;15.07;;;5.60;99.90;;;;;;5014819;28;20025;-87
2021/04/19 07:00:30;;;;;;;24.27;15.20;;;5.80;99.90;;;;;;5013968;28;20056;-86
2021/04/19 07:02:57;;;;;;;27.13;16.90;;;5.60;99.90;;;;;;5019167;28;20482;-89
2021/04/19 07:05:33;;;;;;;28.27;16.43;;;6.00;99.90;;;;;;5017962;28;20120;-88
2021/04/19 07:08:24;;;;;;;26.13;15.50;;;5.60;99.90;;;;;;5016522;28;20033;-89
2021/04/19 07:11:03;;;;;;;27.97;16.20;;;5.50;99.90;;;;;;5011639;28;20087;-88
2021/04/19 07:13:30;;;;;;;28.23;14.97;;;5.50;99.90;;;;;;5010992;28;20439;-88
2021/04/19 07:16:00;;;;;;;25.17;15.63;;;5.50;99.90;;;;;;5012541;28;20048;-88
2021/04/19 07:18:26;;;;;;;27.80;14.83;;;5.70;99.90;;;;;;5016774;28;20033;-88
2021/04/19 07:20:51;;;;;;;24.60;14.63;;;5.40;99.90;;;;;;5018102;28;20029;-88
2021/04/19 07:23:20;;;;;;;26.57;15.27;;;5.50;99.90;;;;;;5017601;28;20032;-89
2021/04/19 07:25:46;;;;;;;25.97;15.53;;;5.40;99.90;;;;;;5018931;28;20116;-89
2021/04/19 07:28:14;;;;;;;26.03;14.93;;;5.40;99.90;;;;;;5018473;28;20028;-88
2021/04/19 07:30:41;;;;;;;27.13;15.47;;;5.50;99.90;;;;;;5019209;28;20032;-89
2021/04/19 07:33:26;;;;;;;29.37;15.83;;;5.50;99.90;;;;;;5019554;28;20067;-89
2021/04/19 07:35:52;;;;;;;26.27;15.70;;;5.50;99.90;;;;;;5018990;28;20026;-88
2021/04/19 07:38:33;;;;;;;32.63;17.20;;;5.60;99.90;;;;;;5018346;28;20036;-88
2021/04/19 07:40:59;;;;;;;24.93;15.07;;;5.70;99.90;;;;;;5019413;28;20108;-87
2021/04/19 07:43:25;;;;;;;28.30;16.13;;;5.80;99.90;;;;;;5013263;28;20033;-86
2021/04/19 07:46:08;;;;;;;25.07;16.40;;;5.70;99.90;;;;;;5012107;28;20509;-86
2021/04/19 07:48:38;;;;;;;26.43;15.00;;;5.60;99.90;;;;;;5029962;28;20565;-86
2021/04/19 07:51:22;;;;;;;26.93;15.13;;;5.70;99.90;;;;;;5021309;28;20483;-86
2021/04/19 07:53:48;;;;;;;26.37;15.13;;;5.80;99.90;;;;;;5005322;28;20060;-86
2021/04/19 07:56:18;;;;;;;26.20;14.67;;;5.80;99.90;;;;;;5010052;28;20084;-87
2021/04/19 07:58:44;;;;;;;24.93;15.70;;;5.80;99.90;;;;;;5011588;28;20072;-87
2021/04/19 08:01:10;;;;;;;25.27;15.37;;;5.90;99.90;;;;;;5012355;28;20022;-87
2021/04/19 08:03:42;;;;;;;25.23;15.43;;;5.90;99.90;;;;;;5028658;28;20429;-87
2021/04/19 08:06:19;;;;;;;24.52;15.15;;;6.00;99.90;;;;;;5008876;28;20549;-86
2021/04/19 08:08:44;;;;;;;23.73;14.50;;;6.10;99.90;;;;;;5003221;28;20033;-86
2021/04/19 08:11:13;;;;;;;24.47;14.23;;;6.20;99.90;;;;;;5013222;28;20041;-86
2021/04/19 08:13:39;;;;;;;24.17;15.00;;;6.40;99.90;;;;;;5004073;28;20033;-87
2021/04/19 08:16:18;;;;;;;26.00;15.30;;;6.40;99.90;;;;;;5024276;28;20114;-87
2021/04/19 08:18:45;;;;;;;24.63;14.53;;;6.50;99.90;;;;;;5026466;28;20547;-87
2021/04/19 08:21:11;;;;;;;21.47;14.30;;;6.50;99.90;;;;;;5013501;28;20040;-86
2021/04/19 08:23:45;;;;;;;25.43;15.40;;;6.90;99.90;;;;;;5008648;28;20109;-86
2021/04/19 08:26:11;;;;;;;25.53;15.20;;;6.70;99.90;;;;;;5014847;28;20399;-86
2021/04/19 08:28:46;;;;;;;25.67;15.50;;;6.80;99.90;;;;;;5014493;28;20068;-87
2021/04/19 08:31:15;;;;;;;27.53;15.83;;;6.80;99.90;;;;;;5009997;28;20034;-87
2021/04/19 08:33:46;;;;;;;30.23;16.53;;;6.80;99.90;;;;;;5015092;28;20029;-89
2021/04/19 08:36:15;;;;;;;29.23;16.10;;;6.60;99.90;;;;;;5017465;28;20030;-89
2021/04/19 08:38:47;;;;;;;29.23;16.33;;;6.70;99.90;;;;;;5010701;28;20032;-88
2021/04/19 08:41:15;;;;;;;27.10;15.85;;;6.60;99.90;;;;;;5002685;28;20022;-87
2021/04/19 08:43:41;;;;;;;29.07;16.67;;;6.60;99.90;;;;;;5014634;28;20025;-88
2021/04/19 08:46:08;;;;;;;29.57;16.90;;;6.60;99.90;;;;;;5032899;28;20026;-88
2021/04/19 08:48:34;;;;;;;30.93;18.77;;;6.70;99.90;;;;;;5013733;28;20026;-88
2021/04/19 08:51:07;;;;;;;30.13;17.97;;;6.60;99.90;;;;;;5002441;28;20058;-90
2021/04/19 08:53:32;;;;;;;31.07;17.47;;;6.70;99.90;;;;;;4997335;28;20026;-89
2021/04/19 08:55:59;;;;;;;30.07;16.73;;;6.90;99.90;;;;;;5005768;28;20037;-89
2021/04/19 08:58:25;;;;;;;27.53;16.83;;;6.70;99.90;;;;;;5008756;28;20056;-89
2021/04/19 09:00:52;;;;;;;34.63;18.33;;;6.80;99.90;;;;;;5014500;28;20497;-88
2021/04/19 09:03:19;;;;;;;32.30;17.77;;;6.80;99.90;;;;;;5013524;28;20057;-88
2021/04/19 09:05:45;;;;;;;29.33;18.27;;;6.90;99.90;;;;;;5014549;28;20064;-88
2021/04/19 09:08:15;;;;;;;30.23;17.70;;;6.90;99.90;;;;;;5014813;28;20032;-88
2021/04/19 09:11:00;;;;;;;32.63;18.50;;;7.50;99.90;;;;;;5002450;28;20021;-89
2021/04/19 09:13:35;;;;;;;30.47;17.00;;;6.90;99.90;;;;;;5007885;28;20168;-88
2021/04/19 09:16:20;;;;;;;30.77;16.00;;;6.90;99.90;;;;;;5015938;28;20045;-89
2021/04/19 09:18:55;;;;;;;26.83;17.13;;;6.90;99.90;;;;;;5014742;28;20059;-88
2021/04/19 09:21:39;;;;;;;31.37;17.43;;;6.90;99.90;;;;;;5014542;28;20029;-88
2021/04/19 09:24:10;;;;;;;28.53;16.70;;;6.90;99.90;;;;;;4998331;28;20057;-89
2021/04/19 09:26:56;;;;;;;28.77;16.10;;;6.90;99.90;;;;;;5008513;28;20382;-89
2021/04/19 09:29:25;;;;;;;27.67;17.60;;;6.90;99.90;;;;;;4996408;28;20098;-90
2021/04/19 09:32:09;;;;;;;27.90;16.23;;;6.90;99.90;;;;;;5013509;28;20451;-89
2021/04/19 09:34:45;;;;;;;30.97;16.30;;;6.90;99.90;;;;;;5007150;28;20506;-89
2021/04/19 09:37:23;;;;;;;33.60;16.80;;;7.00;99.90;;;;;;5010967;28;20120;-87
2021/04/19 09:40:06;;;;;;;30.13;16.27;;;6.90;99.90;;;;;;5007342;28;20068;-87
2021/04/19 09:42:54;;;;;;;29.00;17.73;;;6.90;99.90;;;;;;5007360;28;20026;-88
2021/04/19 09:45:41;;;;;;;30.07;17.90;;;6.90;99.90;;;;;;5012092;28;20036;-87
2021/04/19 09:48:28;;;;;;;28.77;17.10;;;6.90;99.90;;;;;;5012354;28;20030;-88
2021/04/19 09:51:00;;;;;;;32.80;17.60;;;7.00;99.90;;;;;;4988314;28;20034;-88
2021/04/19 09:53:27;;;;;;;31.45;17.70;;;6.90;99.90;;;;;;5010730;28;20053;-87
2021/04/19 09:55:56;;;;;;;31.40;18.20;;;7.00;99.90;;;;;;5027302;28;20042;-88
2021/04/19 09:58:22;;;;;;;29.30;17.53;;;7.00;99.90;;;;;;5012589;28;20048;-88
2021/04/19 10:00:58;;;;;;;32.10;18.67;;;7.20;99.90;;;;;;5011101;28;20478;-88
2021/04/19 10:03:27;;;;;;;30.80;17.40;;;6.90;99.90;;;;;;5011470;28;20018;-88
2021/04/19 10:05:55;;;;;;;38.30;18.83;;;7.00;99.90;;;;;;5016144;28;20044;-89
2021/04/19 10:08:22;;;;;;;33.00;19.07;;;7.00;99.90;;;;;;5022241;28;20036;-91
2021/04/19 10:10:56;;;;;;;31.07;18.97;;;7.40;99.90;;;;;;5021244;28;20128;-87
2021/04/19 10:13:27;;;;;;;31.33;17.80;;;7.20;99.90;;;;;;5033183;28;20033;-88
2021/04/19 10:16:13;;;;;;;32.03;18.47;;;7.10;99.90;;;;;;5013145;28;20096;-88
2021/04/19 10:18:53;;;;;;;32.13;18.97;;;7.20;99.90;;;;;;5029211;28;20352;-88
2021/04/19 10:21:25;;;;;;;30.37;18.03;;;7.20;99.90;;;;;;5016084;28;20025;-90
2021/04/19 10:23:54;;;;;;;34.30;18.73;;;7.60;99.90;;;;;;5023985;28;20049;-90
2021/04/19 10:26:40;;;;;;;30.80;19.03;;;7.50;99.90;;;;;;5025271;28;20509;-91
2021/04/19 10:29:21;;;;;;;32.27;18.60;;;7.30;99.90;;;;;;5043803;28;20033;-90
2021/04/19 10:31:57;;;;;;;33.00;19.80;;;7.10;99.90;;;;;;5021767;28;20123;-90
2021/04/19 10:34:27;;;;;;;31.17;19.53;;;7.40;99.90;;;;;;5020708;28;20038;-90
2021/04/19 10:36:58;;;;;;;35.13;18.33;;;7.40;99.90;;;;;;5034151;28;20079;-90
2021/04/19 10:39:31;;;;;;;35.57;20.70;;;7.40;99.90;;;;;;5036842;28;20041;-90
2021/04/19 10:42:03;;;;;;;30.57;18.13;;;7.80;99.90;;;;;;5018608;28;20049;-90
2021/04/19 10:44:41;;;;;;;33.47;19.45;;;7.50;99.90;;;;;;5011082;28;20018;-89
2021/04/19 10:47:12;;;;;;;33.13;19.20;;;8.00;99.90;;;;;;5015253;28;20065;-88
2021/04/19 10:49:39;;;;;;;34.07;18.70;;;7.70;99.90;;;;;;5037856;22;20014;-86
2021/04/19 10:52:09;;;;;;;30.93;18.80;;;7.70;99.90;;;;;;5027497;28;20099;-87
2021/04/19 10:54:43;;;;;;;35.33;20.10;;;7.70;99.90;;;;;;5029335;28;20355;-87
2021/04/19 10:57:24;;;;;;;37.07;20.73;;;7.60;99.90;;;;;;5026884;28;20024;-86
2021/04/19 10:59:52;;;;;;;38.60;22.20;;;7.70;99.90;;;;;;5029594;28;20040;-88
2021/04/19 11:02:23;;;;;;;36.00;20.20;;;7.80;99.90;;;;;;5013674;28;20409;-88
2021/04/19 11:04:50;;;;;;;37.00;21.40;;;7.80;99.90;;;;;;5012069;28;20034;-88
2021/04/19 11:07:26;;;;;;;36.37;20.63;;;7.90;99.90;;;;;;5022388;28;20053;-87
2021/04/19 11:10:17;;;;;;;36.23;20.80;;;8.00;99.90;;;;;;5011863;28;20045;-88
2021/04/19 11:13:12;;;;;;;35.83;20.80;;;8.00;99.90;;;;;;5020282;28;20505;-87
2021/04/19 11:15:39;;;;;;;32.80;18.80;;;8.10;99.90;;;;;;4999593;28;20041;-88
2021/04/19 11:18:26;;;;;;;33.67;20.40;;;8.20;99.90;;;;;;5008047;28;20022;-87
2021/04/19 11:20:53;;;;;;;33.40;20.35;;;8.20;99.90;;;;;;5009965;28;20034;-86
2021/04/19 11:23:25;;;;;;;33.88;20.92;;;8.20;99.90;;;;;;5013905;28;20026;-87
2021/04/19 11:25:51;;;;;;;;;;;8.20;99.90;;;;;;5013826;28;20087;-88
2021/04/19 11:28:33;;;;;;;30.02;18.40;;;8.20;99.90;;;;;;5014345;28;19910;-87
2021/04/19 11:31:15;;;;;;;28.52;17.40;;;8.20;99.90;;;;;;5016175;28;20037;-87
2021/04/19 11:33:41;;;;;;;30.87;17.50;;;8.10;99.90;;;;;;5013461;28;20704;-88
2021/04/19 11:36:08;;;;;;;29.95;16.67;;;8.10;99.90;;;;;;5019215;28;20342;-88
2021/04/19 11:38:36;;;;;;;29.80;16.75;;;8.10;99.90;;;;;;5013979;28;20040;-87
2021/04/19 11:41:05;;;;;;;31.58;17.55;;;8.00;99.90;;;;;;5016336;28;20041;-87
2021/04/19 11:43:35;;;;;;;29.38;17.15;;;8.00;99.90;;;;;;5017988;28;20101;-88
2021/04/19 11:46:11;;;;;;;28.55;16.65;;;8.10;99.90;;;;;;5011831;28;20376;-88
2021/04/19 11:48:39;;;;;;;31.30;17.70;;;8.10;99.90;;;;;;5012781;28;20018;-87
2021/04/19 11:51:09;;;;;;;32.53;19.33;;;8.10;99.90;;;;;;5014596;28;20128;-88
2021/04/19 11:53:37;;;;;;;30.25;17.25;;;8.20;99.90;;;;;;5012783;28;20084;-88
2021/04/19 11:56:04;;;;;;;34.47;19.00;;;8.20;99.90;;;;;;5013566;28;20030;-88
2021/04/19 11:58:31;;;;;;;31.92;18.70;;;8.20;99.90;;;;;;5014457;28;20029;-87
2021/04/19 12:00:56;;;;;;;30.95;18.15;;;8.30;99.90;;;;;;5013941;28;20134;-89
2021/04/19 12:03:23;;;;;;;29.80;17.07;;;8.30;99.90;;;;;;5013660;28;20048;-87
2021/04/19 12:05:49;;;;;;;26.23;16.08;;;8.30;99.90;;;;;;5015184;28;20067;-88
2021/04/19 12:08:15;;;;;;;24.93;14.93;;;8.40;99.90;;;;;;5014245;28;20025;-87
2021/04/19 12:10:41;;;;;;;26.20;15.60;;;8.30;99.90;;;;;;5015634;28;20627;-88
2021/04/19 12:13:14;;;;;;;25.05;15.75;;;8.30;99.90;;;;;;5013229;28;20089;-88
2021/04/19 12:15:40;;;;;;;27.58;15.20;;;8.40;99.90;;;;;;5013894;28;20032;-88
2021/04/19 12:18:07;;;;;;;17.73;11.90;;;8.30;99.90;;;;;;5010452;28;20032;-87
2021/04/19 12:20:32;;;;;;;29.67;15.32;;;8.50;99.90;;;;;;5011307;28;20136;-87
2021/04/19 12:22:58;;;;;;;18.55;12.15;;;8.50;99.90;;;;;;5012324;28;20252;-87
2021/04/19 12:25:23;;;;;;;24.23;13.98;;;8.40;99.90;;;;;;5013392;28;20529;-88
2021/04/19 12:27:49;;;;;;;21.17;13.73;;;8.50;99.90;;;;;;5011053;28;20037;-88
2021/04/19 12:30:15;;;;;;;23.55;13.55;;;8.50;99.90;;;;;;5012529;28;20109;-87
2021/04/19 12:32:41;;;;;;;24.50;14.15;;;8.50;99.90;;;;;;5012566;28;20410;-88
2021/04/19 12:35:07;;;;;;;21.50;13.20;;;8.50;99.90;;;;;;5007634;28;20026;-88
2021/04/19 12:37:33;;;;;;;21.38;13.02;;;8.50;99.90;;;;;;5015341;28;20490;-88
2021/04/19 12:39:58;;;;;;;23.08;13.10;;;8.50;99.90;;;;;;5013215;28;20026;-88
2021/04/19 12:42:24;;;;;;;21.90;12.52;;;8.50;99.90;;;;;;5015556;28;20076;-85
2021/04/19 12:44:49;;;;;;;23.40;14.02;;;8.60;99.90;;;;;;5016630;28;20544;-85
2021/04/19 12:47:15;;;;;;;20.45;12.60;;;8.60;99.90;;;;;;5014975;28;20029;-87
2021/04/19 12:49:41;;;;;;;21.60;13.63;;;8.60;99.90;;;;;;5013859;28;20036;-88
2021/04/19 12:52:06;;;;;;;20.40;13.33;;;8.70;99.90;;;;;;5015168;28;20107;-88